Time;durP1;ratioP1;P1;durP2;ratioP2;P2;SDS_P1;SDS_P2;PMS_P1;PMS_P2;Temp;Humidity;BMP_temperature;BMP_pressure;BME280_temperature;BME280_humidity;BME280_pressure;Samples;Min_cycle;Max_cycle;Signal;HPM_P1;HPM_P2
2021/04/26 00:03:56;;;;;;;;;;;4.80;82.90;;;;;;10403551;28;20031;-67
2021/04/26 00:08:57;;;;;;;;;;;4.70;86.50;;;;;;10403794;28;19965;-67
2021/04/26 00:13:59;;;;;;;;;;;4.50;89.70;;;;;;10409742;28;20048;-66
2021/04/26 00:19:00;;;;;;;;;;;4.40;91.50;;;;;;10411137;28;19964;-67
2021/04/26 00:24:02;;;;;;;;;;;4.40;93.30;;;;;;10410612;28;19961;-67
2021/04/26 00:29:03;;;;;;;;;;;4.30;94.30;;;;;;10410488;28;20020;-67
2021/04/26 00:34:04;;;;;;;;;;;4.20;96.60;;;;;;10410659;28;19925;-66
2021/04/26 00:39:06;;;;;;;;;;;4.10;97.50;;;;;;10410195;28;19925;-67
2021/04/26 00:44:07;;;;;;;;;;;4.00;98.70;;;;;;10409703;28;19943;-67
2021/04/26 00:49:09;;;;;;;;;;;3.90;99.90;;;;;;10409671;28;20028;-67
2021/04/26 00:54:10;;;;;;;;;;;3.90;99.90;;;;;;10409545;28;20437;-67
2021/04/26 00:59:11;;;;;;;;;;;3.70;99.90;;;;;;10408186;28;20401;-67
2021/04/26 01:04:13;;;;;;;;;;;3.70;99.90;;;;;;10409088;28;19971;-67
2021/04/26 01:09:14;;;;;;;;;;;3.70;99.90;;;;;;10409568;28;19957;-66
2021/04/26 01:14:26;;;;;;;;;;;3.30;99.90;;;;;;10409078;28;20044;-67
2021/04/26 01:19:36;;;;;;;;;;;3.30;99.90;;;;;;10408716;28;19925;-67
2021/04/26 01:24:44;;;;;;;;;;;3.40;99.90;;;;;;10407269;28;19967;-67
2021/04/26 01:29:45;;;;;;;;;;;3.40;99.90;;;;;;10378952;28;19961;-67
2021/04/26 01:34:47;;;;;;;;;;;3.40;99.90;;;;;;10407595;28;20015;-67
2021/04/26 01:39:48;;;;;;;;;;;3.40;99.90;;;;;;10408656;28;20051;-67
2021/04/26 01:44:50;;;;;;;;;;;3.40;99.90;;;;;;10406598;28;19929;-67
2021/04/26 01:49:52;;;;;;;;;;;3.30;99.90;;;;;;10407291;28;19925;-67
2021/04/26 01:54:54;;;;;;;;;;;3.10;99.90;;;;;;10406778;28;19935;-67
2021/04/26 01:59:56;;;;;;;;;;;3.20;99.90;;;;;;10406286;28;20027;-67
2021/04/26 02:04:58;;;;;;;;;;;3.10;99.90;;;;;;10411774;28;20019;-67
2021/04/26 02:09:59;;;;;;;;;;;2.90;99.90;;;;;;10413860;28;20040;-67
2021/04/26 02:15:01;;;;;;;;;;;2.90;99.90;;;;;;10413531;28;19960;-67
2021/04/26 02:20:06;;;;;;;;;;;2.90;99.90;;;;;;10411924;28;19968;-67
2021/04/26 02:25:09;;;;;;;;;;;2.80;99.90;;;;;;10411619;28;19933;-66
2021/04/26 02:30:11;;;;;;;;;;;2.90;99.90;;;;;;10413760;28;19957;-67
2021/04/26 02:35:15;;;;;;;;;;;2.70;99.90;;;;;;10412986;28;20023;-67
2021/04/26 02:40:17;;;;;;;;;;;2.60;99.90;;;;;;10413196;28;19932;-67
2021/04/26 02:45:20;;;;;;;;;;;2.40;99.90;;;;;;10413124;28;19929;-67
2021/04/26 02:50:24;;;;;;;;;;;2.40;99.90;;;;;;10412939;28;20015;-67
2021/04/26 02:55:26;;;;;;;;;;;2.40;99.90;;;;;;10412577;28;19933;-67
2021/04/26 03:00:28;;;;;;;;;;;2.40;99.90;;;;;;10412702;28;19968;-66
2021/04/26 03:05:30;;;;;;;;;;;2.30;99.90;;;;;;10407528;28;19929;-66
2021/04/26 03:10:31;;;;;;;;;;;2.20;99.90;;;;;;10407222;28;20019;-66
2021/04/26 03:15:33;;;;;;;;;;;2.10;99.90;;;;;;10403331;28;20373;-67
2021/04/26 03:20:34;;;;;;;;;;;2.00;99.90;;;;;;10405222;28;20020;-66
2021/04/26 03:25:36;;;;;;;;;;;1.90;99.90;;;;;;10405142;28;19936;-67
2021/04/26 03:30:38;;;;;;;;;;;1.70;99.90;;;;;;10405221;28;20011;-67
2021/04/26 03:35:39;;;;;;;;;;;1.50;99.90;;;;;;10404677;28;19929;-66
2021/04/26 03:40:41;;;;;;;;;;;1.50;99.90;;;;;;10404533;28;20047;-67
2021/04/26 03:45:42;;;;;;;;;;;1.60;99.90;;;;;;10404762;28;19925;-67
2021/04/26 03:50:44;;;;;;;;;;;1.60;99.90;;;;;;10432875;28;19976;-66
2021/04/26 03:55:45;;;;;;;;;;;1.60;99.90;;;;;;10417373;28;19968;-67
2021/04/26 04:00:46;;;;;;;;;;;1.50;99.90;;;;;;10410880;28;20023;-66
2021/04/26 04:05:48;;;;;;;;;;;1.50;99.90;;;;;;10410570;28;20043;-67
2021/04/26 04:10:49;;;;;;;;;;;1.40;99.90;;;;;;10409630;28;20351;-67
2021/04/26 04:15:50;;;;;;;;;;;1.40;99.90;;;;;;10410041;28;20020;-67
2021/04/26 04:20:52;;;;;;;;;;;1.40;99.90;;;;;;10409319;28;20028;-67
2021/04/26 04:25:54;;;;;;;;;;;1.40;99.90;;;;;;10409661;28;20096;-66
2021/04/26 04:30:55;;;;;;;;;;;1.50;99.90;;;;;;10409706;28;19999;-67
2021/04/26 04:35:57;;;;;;;;;;;1.50;99.90;;;;;;10409501;28;19976;-67
2021/04/26 04:40:59;;;;;;;;;;;1.50;99.90;;;;;;10407719;28;19936;-67
2021/04/26 04:46:01;;;;;;;;;;;1.20;99.90;;;;;;10409143;28;19933;-66
2021/04/26 04:51:03;;;;;;;;;;;1.50;99.90;;;;;;10408201;28;19925;-67
2021/04/26 04:56:04;;;;;;;;;;;3.90;99.90;;;;;;10409347;28;19969;-67
2021/04/26 05:01:06;;;;;;;;;;;4.60;99.90;;;;;;10413509;28;20100;-67
2021/04/26 05:06:07;;;;;;;;;;;4.90;99.90;;;;;;10408900;28;20012;-67
2021/04/26 05:11:09;;;;;;;;;;;6.10;96.20;;;;;;10407214;28;19936;-67
2021/04/26 05:16:10;;;;;;;;;;;5.30;95.90;;;;;;10408525;28;20012;-67
2021/04/26 05:21:12;;;;;;;;;;;4.50;99.60;;;;;;10407085;28;19968;-68
2021/04/26 05:26:13;;;;;;;;;;;3.80;99.90;;;;;;10408911;28;20331;-67
2021/04/26 05:31:14;;;;;;;;;;;3.60;99.90;;;;;;10408087;28;20392;-67
2021/04/26 05:36:16;;;;;;;;;;;3.60;99.90;;;;;;10406721;28;19929;-67
2021/04/26 05:41:22;;;;;;;;;;;3.50;99.90;;;;;;10408119;28;19964;-67
2021/04/26 05:46:23;;;;;;;;;;;3.50;99.90;;;;;;10408158;28;20417;-67
2021/04/26 05:51:25;;;;;;;;;;;3.60;99.90;;;;;;10406426;28;19925;-67
2021/04/26 05:56:26;;;;;;;;;;;3.70;99.90;;;;;;10408250;28;20011;-67
2021/04/26 06:01:27;;;;;;;;;;;3.70;99.90;;;;;;10407310;28;20112;-67
2021/04/26 06:06:29;;;;;;;;;;;3.80;99.90;;;;;;10407082;28;19951;-67
2021/04/26 06:11:30;;;;;;;;;;;3.90;99.90;;;;;;10407368;28;20333;-67
2021/04/26 06:16:31;;;;;;;;;;;4.00;99.90;;;;;;10406821;28;19925;-67
2021/04/26 06:21:33;;;;;;;;;;;4.10;99.90;;;;;;10406852;28;19925;-68
2021/04/26 06:26:34;;;;;;;;;;;4.10;99.90;;;;;;10406436;28;20032;-67
2021/04/26 06:31:36;;;;;;;;;;;3.90;99.90;;;;;;10406706;28;20377;-67
2021/04/26 06:36:38;;;;;;;;;;;3.90;99.90;;;;;;10405013;28;19984;-68
2021/04/26 06:41:39;;;;;;;;;;;4.10;99.90;;;;;;10406047;28;19925;-67
2021/04/26 06:46:40;;;;;;;;;;;4.20;99.90;;;;;;10405780;28;19976;-67
2021/04/26 06:51:42;;;;;;;;;;;4.50;98.20;;;;;;10406070;28;19935;-67
2021/04/26 06:56:44;;;;;;;;;;;4.60;95.90;;;;;;10405257;28;19925;-68
2021/04/26 07:01:45;;;;;;;;;;;4.80;95.20;;;;;;10405670;28;19935;-67
2021/04/26 07:06:47;;;;;;;;;;;4.90;92.20;;;;;;10405407;28;19929;-67
2021/04/26 07:11:49;;;;;;;;;;;5.20;92.10;;;;;;10405564;28;19976;-67
2021/04/26 07:16:50;;;;;;;;;;;5.30;90.70;;;;;;10404041;28;19929;-67
2021/04/26 07:21:52;;;;;;;;;;;5.50;89.30;;;;;;10404578;28;20008;-67
2021/04/26 07:26:53;;;;;;;;;;;5.90;86.50;;;;;;10405140;28;19971;-67
2021/04/26 07:31:55;;;;;;;;;;;6.10;80.20;;;;;;10405499;28;19968;-67
2021/04/26 07:36:59;;;;;;;;;;;6.30;72.80;;;;;;10404796;28;19964;-67
2021/04/26 07:42:01;;;;;;;;;;;7.00;72.90;;;;;;10404649;28;20016;-67
2021/04/26 07:47:02;;;;;;;;;;;8.00;63.90;;;;;;10404339;28;19975;-67
2021/04/26 07:52:04;;;;;;;;;;;8.50;59.50;;;;;;10405036;28;19925;-68
2021/04/26 07:57:06;;;;;;;;;;;9.30;56.00;;;;;;10404144;28;19925;-68
2021/04/26 08:02:07;;;;;;;;;;;9.60;54.40;;;;;;10404353;28;19929;-68
2021/04/26 08:07:08;;;;;;;;;;;10.20;52.80;;;;;;10404024;28;20571;-68
2021/04/26 08:12:10;;;;;;;;;;;10.70;50.40;;;;;;10404171;28;19925;-68
2021/04/26 08:17:11;;;;;;;;;;;11.00;49.50;;;;;;10403662;28;19929;-68
2021/04/26 08:22:13;;;;;;;;;;;11.30;47.60;;;;;;10404496;28;20436;-69
2021/04/26 08:27:14;;;;;;;;;;;11.20;46.60;;;;;;10403338;28;20012;-69
2021/04/26 08:32:15;;;;;;;;;;;11.80;45.30;;;;;;10406431;28;20044;-68
2021/04/26 08:37:17;;;;;;;;;;;11.60;43.40;;;;;;10410978;28;19932;-68
2021/04/26 08:42:19;;;;;;;;;;;11.90;43.70;;;;;;10410603;28;20288;-69
2021/04/26 08:47:23;;;;;;;;;;;12.00;42.00;;;;;;10410408;28;19925;-68
2021/04/26 08:52:25;;;;;;;;;;;12.20;43.30;;;;;;10447507;28;19975;-69
2021/04/26 08:57:26;;;;;;;;;;;12.30;41.50;;;;;;10426460;28;20009;-68
2021/04/26 09:02:28;;;;;;;;;;;12.50;39.90;;;;;;10408941;28;20430;-69
2021/04/26 09:07:30;;;;;;;;;;;12.40;39.40;;;;;;10407765;28;19925;-68
2021/04/26 09:12:31;;;;;;;;;;;12.80;37.70;;;;;;10408590;28;20417;-68
2021/04/26 09:17:32;;;;;;;;;;;13.00;38.20;;;;;;10407856;28;20015;-68
2021/04/26 09:22:38;;;;;;;;;;;13.20;36.70;;;;;;10407801;28;20292;-68
2021/04/26 09:27:49;;;;;;;;;;;12.60;35.40;;;;;;10405472;28;19929;-68
2021/04/26 09:33:10;;;;;;;;;;;12.80;37.70;;;;;;10406982;28;20652;-68
2021/04/26 09:38:25;;;;;;;;;;;12.90;36.40;;;;;;10425690;28;20421;-68
2021/04/26 09:43:26;;;;;;;;;;;13.00;36.70;;;;;;10446816;28;20337;-68
2021/04/26 09:48:29;;;;;;;;;;;12.90;37.00;;;;;;10430204;28;20020;-68
2021/04/26 09:53:31;;;;;;;;;;;13.10;37.70;;;;;;10448246;28;19928;-68
2021/04/26 09:58:33;;;;;;;;;;;13.50;37.70;;;;;;10420684;28;19952;-68
2021/04/26 10:03:35;;;;;;;;;;;13.20;35.70;;;;;;10405337;28;19951;-68
2021/04/26 10:08:37;;;;;;;;;;;12.90;36.10;;;;;;10412111;28;19924;-68
2021/04/26 10:13:40;;;;;;;;;;;12.70;35.30;;;;;;10429664;28;20379;-68
2021/04/26 10:18:44;;;;;;;;;;;12.50;36.30;;;;;;10405856;28;20334;-68
2021/04/26 10:23:50;;;;;;;;;;;12.90;35.80;;;;;;10415624;28;20070;-68
2021/04/26 10:29:06;;;;;;;;;;;12.50;35.60;;;;;;10412463;28;19926;-68
2021/04/26 10:34:10;;;;;;;;;;;12.50;35.80;;;;;;10405422;28;20389;-68
2021/04/26 10:39:16;;;;;;;;;;;12.40;37.10;;;;;;10404830;28;19926;-68
2021/04/26 10:44:36;;;;;;;;;;;12.60;35.30;;;;;;10405146;28;20332;-68
2021/04/26 10:49:41;;;;;;;;;;;12.60;35.40;;;;;;10425201;28;19925;-68
2021/04/26 10:54:44;;;;;;;;;;;12.70;37.70;;;;;;10423735;28;19929;-68
2021/04/26 10:59:46;;;;;;;;;;;12.70;36.60;;;;;;10426504;28;19935;-68
2021/04/26 11:05:07;;;;;;;;;;;12.70;36.20;;;;;;10447074;28;20016;-68
2021/04/26 11:10:27;;;;;;;;;;;12.20;35.00;;;;;;10418590;28;20417;-68
2021/04/26 11:15:29;;;;;;;;;;;11.80;34.90;;;;;;10404180;28;20397;-61
2021/04/26 11:20:38;;;;;;;;;;;11.90;35.90;;;;;;10404326;28;20027;-61
2021/04/26 11:25:40;;;;;;;;;;;12.20;37.10;;;;;;10404723;28;19925;-61
2021/04/26 11:30:51;;;;;;;;;;;12.40;37.60;;;;;;10403048;28;19929;-60
2021/04/26 11:36:15;;;;;;;;;;;12.60;36.90;;;;;;10404893;28;19929;-61
2021/04/26 11:41:17;;;;;;;;;;;12.90;36.20;;;;;;10404836;28;19926;-61
2021/04/26 11:46:25;;;;;;;;;;;12.50;34.80;;;;;;10403319;28;19929;-61
2021/04/26 11:51:30;;;;;;;;;;;12.50;36.20;;;;;;10403377;28;19968;-61
2021/04/26 11:56:31;;;;;;;;;;;12.40;34.70;;;;;;10404376;28;20040;-61
2021/04/26 12:01:33;;;;;;;;;;;12.60;36.50;;;;;;10403578;28;19932;-61
2021/04/26 12:06:34;;;;;;;;;;;12.80;37.00;;;;;;10405338;28;19968;-61
2021/04/26 12:11:35;;;;;;;;;;;12.90;34.40;;;;;;10411533;28;20016;-61
2021/04/26 12:16:37;;;;;;;;;;;12.80;36.60;;;;;;10411792;28;20008;-60
2021/04/26 12:21:39;;;;;;;;;;;13.20;36.50;;;;;;10410715;28;19964;-61
2021/04/26 12:26:41;;;;;;;;;;;13.30;35.70;;;;;;10411402;28;20011;-61
2021/04/26 12:31:44;;;;;;;;;;;13.40;36.30;;;;;;10409487;28;19979;-61
2021/04/26 12:36:46;;;;;;;;;;;13.50;33.10;;;;;;10411024;28;20000;-61
2021/04/26 12:41:47;;;;;;;;;;;13.60;35.60;;;;;;10410399;28;20447;-61
2021/04/26 12:46:49;;;;;;;;;;;13.60;34.70;;;;;;10409735;28;20445;-61
2021/04/26 12:51:50;;;;;;;;;;;13.60;32.70;;;;;;10410277;28;20002;-61
2021/04/26 12:56:58;;;;;;;;;;;13.40;33.10;;;;;;10410549;28;19983;-61
2021/04/26 13:02:00;;;;;;;;;;;13.50;33.10;;;;;;10409045;28;19926;-61
2021/04/26 13:07:01;;;;;;;;;;;13.70;33.70;;;;;;10409983;28;19925;-61
2021/04/26 13:12:03;;;;;;;;;;;13.90;33.20;;;;;;10409090;28;19953;-61
2021/04/26 13:17:08;;;;;;;;;;;14.10;31.30;;;;;;10407462;28;19932;-61
2021/04/26 13:22:23;;;;;;;;;;;14.10;33.20;;;;;;10406503;28;19932;-61
2021/04/26 13:27:25;;;;;;;;;;;14.00;32.70;;;;;;10406932;28;20040;-61
2021/04/26 13:32:26;;;;;;;;;;;13.90;31.80;;;;;;10407602;28;19933;-61
2021/04/26 13:37:27;;;;;;;;;;;14.00;31.60;;;;;;10406916;28;19926;-61
2021/04/26 13:42:29;;;;;;;;;;;13.90;32.30;;;;;;10407416;28;20019;-61
2021/04/26 13:47:30;;;;;;;;;;;13.90;33.00;;;;;;10407184;28;19964;-61
2021/04/26 13:52:31;;;;;;;;;;;13.90;32.30;;;;;;10407462;28;19939;-61
2021/04/26 13:57:32;;;;;;;;;;;14.20;32.20;;;;;;10406894;28;19925;-61
2021/04/26 14:02:34;;;;;;;;;;;14.20;30.00;;;;;;10406392;28;19932;-61
2021/04/26 14:07:35;;;;;;;;;;;14.10;31.20;;;;;;10407705;28;19956;-61
2021/04/26 14:12:37;;;;;;;;;;;14.00;31.70;;;;;;10406621;28;19929;-61
2021/04/26 14:17:38;;;;;;;;;;;14.20;31.40;;;;;;10405958;28;20020;-61
2021/04/26 14:22:40;;;;;;;;;;;14.10;31.40;;;;;;10405204;28;19983;-61
2021/04/26 14:27:41;;;;;;;;;;;14.10;30.20;;;;;;10405361;28;19925;-61
2021/04/26 14:32:43;;;;;;;;;;;14.20;29.80;;;;;;10405704;28;19960;-61
2021/04/26 14:37:45;;;;;;;;;;;14.00;29.20;;;;;;10405578;28;20285;-61
2021/04/26 14:42:46;;;;;;;;;;;14.00;29.30;;;;;;10389173;28;20045;-61
2021/04/26 14:47:47;;;;;;;;;;;14.10;29.20;;;;;;10447040;28;20384;-61
2021/04/26 14:52:49;;;;;;;;;;;14.30;29.60;;;;;;10415473;28;20947;-61
2021/04/26 14:57:50;;;;;;;;;;;14.20;30.30;;;;;;10401995;28;19925;-61
2021/04/26 15:02:51;;;;;;;;;;;14.20;30.90;;;;;;10412157;28;20389;-61
2021/04/26 15:07:53;;;;;;;;;;;14.40;30.30;;;;;;10401955;28;21248;-61
2021/04/26 15:12:55;;;;;;;;;;;14.30;28.90;;;;;;10402423;28;19951;-61
2021/04/26 15:17:56;;;;;;;;;;;14.40;29.90;;;;;;10403323;28;19976;-61
2021/04/26 15:23:06;;;;;;;;;;;14.20;28.20;;;;;;10404522;28;20373;-61
2021/04/26 15:28:13;;;;;;;;;;;14.00;28.90;;;;;;10402672;28;20550;-61
2021/04/26 15:33:15;;;;;;;;;;;14.00;31.50;;;;;;10403876;28;20019;-61
2021/04/26 15:38:17;;;;;;;;;;;14.10;30.40;;;;;;10404423;28;19929;-61
2021/04/26 15:43:18;;;;;;;;;;;14.10;30.90;;;;;;10407550;28;20475;-61
2021/04/26 15:48:19;;;;;;;;;;;14.10;29.50;;;;;;10412696;28;19929;-61
2021/04/26 15:53:21;;;;;;;;;;;14.10;29.50;;;;;;10412411;28;20420;-61
2021/04/26 15:58:22;;;;;;;;;;;14.00;29.40;;;;;;10412200;28;20476;-61
2021/04/26 16:03:23;;;;;;;;;;;14.10;30.80;;;;;;10412131;28;19925;-61
2021/04/26 16:08:25;;;;;;;;;;;14.10;29.60;;;;;;10412173;28;19925;-61
2021/04/26 16:13:27;;;;;;;;;;;14.10;29.10;;;;;;10412028;28;20102;-61
2021/04/26 16:18:28;;;;;;;;;;;14.00;29.80;;;;;;10411277;28;19987;-61
2021/04/26 16:23:30;;;;;;;;;;;14.20;29.60;;;;;;10410385;28;19925;-61
2021/04/26 16:28:31;;;;;;;;;;;14.40;31.20;;;;;;10409136;28;20293;-61
2021/04/26 16:33:32;;;;;;;;;;;14.40;30.70;;;;;;10410483;28;20548;-61
2021/04/26 16:38:34;;;;;;;;;;;14.10;30.10;;;;;;10410013;28;19925;-61
2021/04/26 16:43:35;;;;;;;;;;;13.90;30.20;;;;;;10408441;28;19967;-61
2021/04/26 16:48:36;;;;;;;;;;;13.90;30.70;;;;;;10409261;28;20397;-61
2021/04/26 16:53:42;;;;;;;;;;;13.90;30.00;;;;;;10407406;28;19931;-61
2021/04/26 16:58:43;;;;;;;;;;;13.90;30.40;;;;;;10409500;28;20024;-61
2021/04/26 17:03:45;;;;;;;;;;;14.00;31.00;;;;;;10405980;28;20022;-61
2021/04/26 17:08:46;;;;;;;;;;;13.60;31.70;;;;;;10403139;28;20018;-61
2021/04/26 17:13:47;;;;;;;;;;;13.50;32.20;;;;;;10404066;28;20019;-61
2021/04/26 17:18:49;;;;;;;;;;;13.50;32.40;;;;;;10402633;28;20382;-61
2021/04/26 17:23:51;;;;;;;;;;;13.30;31.30;;;;;;10407243;28;19971;-61
2021/04/26 17:28:53;;;;;;;;;;;13.20;32.10;;;;;;10406538;28;19925;-61
2021/04/26 17:33:54;;;;;;;;;;;13.10;32.80;;;;;;10408178;28;19951;-61
2021/04/26 17:38:56;;;;;;;;;;;13.00;32.60;;;;;;10407808;28;19995;-61
2021/04/26 17:43:59;;;;;;;;;;;12.70;33.90;;;;;;10407704;28;19931;-61
2021/04/26 17:49:00;;;;;;;;;;;12.60;33.70;;;;;;10407468;28;20369;-61
2021/04/26 17:54:02;;;;;;;;;;;12.50;34.40;;;;;;10407078;28;20369;-61
2021/04/26 17:59:03;;;;;;;;;;;12.40;34.20;;;;;;10406299;28;19964;-61
2021/04/26 18:04:05;;;;;;;;;;;12.30;34.60;;;;;;10403495;28;20008;-69
2021/04/26 18:09:08;;;;;;;;;;;12.10;34.70;;;;;;10406666;28;19965;-70
2021/04/26 18:14:09;;;;;;;;;;;11.90;35.80;;;;;;10406169;28;20008;-69
2021/04/26 18:19:11;;;;;;;;;;;11.60;35.20;;;;;;10406203;28;20015;-69
2021/04/26 18:24:12;;;;;;;;;;;11.40;35.00;;;;;;10399150;28;19939;-69
2021/04/26 18:29:13;;;;;;;;;;;11.30;35.50;;;;;;10395872;28;20389;-69
2021/04/26 18:34:14;;;;;;;;;;;11.10;36.40;;;;;;10404062;28;20024;-69
2021/04/26 18:39:16;;;;;;;;;;;11.00;36.70;;;;;;10404867;28;19933;-69
2021/04/26 18:44:17;;;;;;;;;;;10.90;37.20;;;;;;10401590;28;20350;-69
2021/04/26 18:49:19;;;;;;;;;;;10.70;37.00;;;;;;10395998;28;20543;-69
2021/04/26 18:54:32;;;;;;;;;;;10.60;37.80;;;;;;10395808;28;19976;-70
2021/04/26 18:59:33;;;;;;;;;;;10.40;37.40;;;;;;10389101;28;19929;-69
2021/04/26 19:04:37;;;;;;;;;;;10.30;38.50;;;;;;10401900;28;20379;-69
2021/04/26 19:09:38;;;;;;;;;;;10.20;39.40;;;;;;10397681;28;20040;-69
2021/04/26 19:14:39;;;;;;;;;;;10.00;39.70;;;;;;10409783;28;20020;-69
2021/04/26 19:19:41;;;;;;;;;;;9.80;39.50;;;;;;10401994;28;20434;-69
2021/04/26 19:24:42;;;;;;;;;;;9.70;40.80;;;;;;10402127;28;20036;-69
2021/04/26 19:29:43;;;;;;;;;;;9.60;41.60;;;;;;10401944;28;19925;-69
2021/04/26 19:34:49;;;;;;;;;;;9.50;41.90;;;;;;10403453;28;19931;-69
2021/04/26 19:39:50;;;;;;;;;;;9.30;41.90;;;;;;10402093;28;19925;-69
2021/04/26 19:44:52;;;;;;;;;;;9.10;42.30;;;;;;10402513;28;20285;-68
2021/04/26 19:49:53;;;;;;;;;;;9.00;42.30;;;;;;10403010;28;20058;-69
2021/04/26 19:54:55;;;;;;;;;;;8.90;43.10;;;;;;10401966;28;20022;-69
2021/04/26 19:59:56;;;;;;;;;;;8.90;43.70;;;;;;10402682;28;20294;-68
2021/04/26 20:04:57;;;;;;;;;;;8.80;44.80;;;;;;10402882;28;20019;-69
2021/04/26 20:09:59;;;;;;;;;;;8.80;45.90;;;;;;10402560;28;20381;-68
2021/04/26 20:15:00;;;;;;;;;;;8.70;45.70;;;;;;10401828;28;20340;-69
2021/04/26 20:20:03;;;;;;;;;;;8.70;45.30;;;;;;10402465;28;19927;-69
2021/04/26 20:25:05;;;;;;;;;;;8.60;45.80;;;;;;10402802;28;19929;-68
2021/04/26 20:30:08;;;;;;;;;;;8.50;46.90;;;;;;10407771;28;19963;-68
2021/04/26 20:35:10;;;;;;;;;;;8.30;46.70;;;;;;10410828;28;20024;-68
2021/04/26 20:40:13;;;;;;;;;;;8.20;47.00;;;;;;10409942;28;19929;-68
2021/04/26 20:45:15;;;;;;;;;;;8.20;46.90;;;;;;10410408;28;20480;-68
2021/04/26 20:50:17;;;;;;;;;;;8.10;48.10;;;;;;10409626;28;19929;-68
2021/04/26 20:55:18;;;;;;;;;;;7.90;49.00;;;;;;10409741;28;19925;-68
2021/04/26 21:00:21;;;;;;;;;;;7.90;48.10;;;;;;10404857;28;20364;-69
2021/04/26 21:05:23;;;;;;;;;;;7.70;47.90;;;;;;10407982;28;19960;-68
2021/04/26 21:10:24;;;;;;;;;;;7.50;48.40;;;;;;10407343;28;19932;-68
2021/04/26 21:15:25;;;;;;;;;;;7.40;48.30;;;;;;10406580;28;19965;-68
2021/04/26 21:20:27;;;;;;;;;;;7.30;48.60;;;;;;10407595;28;19983;-68
2021/04/26 21:25:28;;;;;;;;;;;7.30;49.00;;;;;;10406617;28;19936;-68
2021/04/26 21:30:29;;;;;;;;;;;7.20;48.90;;;;;;10406332;28;20385;-69
2021/04/26 21:35:30;;;;;;;;;;;7.10;48.50;;;;;;10406934;28;19929;-68
2021/04/26 21:40:32;;;;;;;;;;;6.80;49.20;;;;;;10405779;28;19980;-68
2021/04/26 21:45:34;;;;;;;;;;;6.50;49.60;;;;;;10405246;28;20015;-68
2021/04/26 21:50:35;;;;;;;;;;;6.20;51.30;;;;;;10404605;28;20462;-68
2021/04/26 21:55:36;;;;;;;;;;;6.30;52.40;;;;;;10406101;28;20044;-68
2021/04/26 22:00:38;;;;;;;;;;;6.10;53.30;;;;;;10405393;28;20012;-68
2021/04/26 22:05:39;;;;;;;;;;;6.10;53.60;;;;;;10404874;28;19925;-68
2021/04/26 22:10:41;;;;;;;;;;;6.20;53.50;;;;;;10406009;28;20015;-68
2021/04/26 22:15:43;;;;;;;;;;;6.10;54.20;;;;;;10405094;28;19929;-68
2021/04/26 22:20:44;;;;;;;;;;;6.00;53.60;;;;;;10404485;28;20031;-68
2021/04/26 22:25:46;;;;;;;;;;;6.00;53.80;;;;;;10404325;28;19957;-68
2021/04/26 22:30:47;;;;;;;;;;;5.90;53.70;;;;;;10404026;28;20023;-68
2021/04/26 22:35:54;;;;;;;;;;;5.90;53.30;;;;;;10404284;28;19956;-69
2021/04/26 22:40:56;;;;;;;;;;;5.80;54.20;;;;;;10403747;28;20004;-68
2021/04/26 22:45:57;;;;;;;;;;;5.70;54.20;;;;;;10403308;28;19935;-68
2021/04/26 22:50:58;;;;;;;;;;;5.50;54.20;;;;;;10402330;28;19925;-68
2021/04/26 22:56:02;;;;;;;;;;;5.60;53.40;;;;;;10403128;28;19929;-68
2021/04/26 23:01:03;;;;;;;;;;;5.40;54.60;;;;;;10402600;28;19929;-68
2021/04/26 23:06:05;;;;;;;;;;;5.40;55.00;;;;;;10403423;28;20384;-68
2021/04/26 23:11:06;;;;;;;;;;;5.40;55.30;;;;;;10415946;28;20020;-68
2021/04/26 23:16:08;;;;;;;;;;;5.50;55.30;;;;;;10402808;28;19968;-68
2021/04/26 23:21:10;;;;;;;;;;;5.50;55.20;;;;;;10402836;28;20228;-68
2021/04/26 23:26:12;;;;;;;;;;;5.50;54.70;;;;;;10403166;28;19932;-68
2021/04/26 23:31:13;;;;;;;;;;;5.40;55.20;;;;;;10400913;28;19979;-68
2021/04/26 23:36:14;;;;;;;;;;;5.30;55.90;;;;;;10402509;28;19926;-68
2021/04/26 23:41:15;;;;;;;;;;;5.20;56.30;;;;;;10401706;28;20365;-68
2021/04/26 23:46:17;;;;;;;;;;;5.10;56.00;;;;;;10402802;28;20003;-68
2021/04/26 23:51:18;;;;;;;;;;;5.30;56.10;;;;;;10401258;28;20015;-69
2021/04/26 23:56:20;;;;;;;;;;;5.40;56.70;;;;;;10404323;28;20008;-68
